createdAt,value
2022-10-19T00:00:15.849Z,9.33
2022-10-19T00:02:46.241Z,9.37
2022-10-19T00:05:19.438Z,9.40
2022-10-19T00:07:53.167Z,9.48
2022-10-19T00:10:26.920Z,9.53
2022-10-19T00:12:56.523Z,9.55
2022-10-19T00:15:29.172Z,9.54
2022-10-19T00:17:57.791Z,9.53
2022-10-19T00:20:38.583Z,9.50
2022-10-19T00:23:10.855Z,9.50
2022-10-19T00:25:42.088Z,9.43
2022-10-19T00:28:20.469Z,9.42
2022-10-19T00:33:20.422Z,9.37
2022-10-19T00:35:51.836Z,9.33
2022-10-19T00:38:20.343Z,9.33
2022-10-19T00:40:48.084Z,9.28
2022-10-19T00:43:18.500Z,9.22
2022-10-19T00:45:45.720Z,9.14
2022-10-19T00:48:15.718Z,9.08
2022-10-19T00:50:43.938Z,9.04
2022-10-19T00:53:11.639Z,8.98
2022-10-19T00:55:39.804Z,8.97
2022-10-19T00:58:07.355Z,8.91
2022-10-19T01:00:34.675Z,8.83
2022-10-19T01:03:03.093Z,8.74
2022-10-19T01:05:32.224Z,8.67
2022-10-19T01:07:59.874Z,8.60
2022-10-19T01:10:36.963Z,8.54
2022-10-19T01:13:29.326Z,8.48
2022-10-19T01:16:08.892Z,8.41
2022-10-19T01:18:39.748Z,8.35
2022-10-19T01:21:13.297Z,8.33
2022-10-19T01:24:02.725Z,8.29
2022-10-19T01:26:42.451Z,8.25
2022-10-19T01:29:22.430Z,8.21
2022-10-19T01:32:05.715Z,8.21
2022-10-19T01:34:48.206Z,8.15
2022-10-19T01:37:25.091Z,8.11
2022-10-19T01:40:04.583Z,8.08
2022-10-19T01:42:35.455Z,8.07
2022-10-19T01:45:08.932Z,8.04
2022-10-19T01:47:45.539Z,8.02
2022-10-19T01:50:16.110Z,8.04
2022-10-19T01:52:43.589Z,8.05
2022-10-19T01:55:12.700Z,8.05
2022-10-19T01:57:42.728Z,8.06
2022-10-19T02:00:12.020Z,8.04
2022-10-19T02:02:41.946Z,8.00
2022-10-19T02:05:11.325Z,7.98
2022-10-19T02:07:40.888Z,7.91
2022-10-19T02:10:08.818Z,7.87
2022-10-19T02:12:36.998Z,7.83
2022-10-19T02:15:08.148Z,7.79
2022-10-19T02:17:38.790Z,7.74
2022-10-19T02:20:06.306Z,7.73
2022-10-19T02:22:33.972Z,7.68
2022-10-19T02:25:02.862Z,7.67
2022-10-19T02:27:30.262Z,7.65
2022-10-19T02:29:57.451Z,7.60
2022-10-19T02:32:26.209Z,7.55
2022-10-19T02:34:53.407Z,7.48
2022-10-19T02:37:23.355Z,7.43
2022-10-19T02:39:49.782Z,7.39
2022-10-19T02:42:28.595Z,7.35
2022-10-19T02:44:58.170Z,7.32
2022-10-19T02:47:28.807Z,7.28
2022-10-19T02:49:56.240Z,7.24
2022-10-19T02:52:23.419Z,7.19
2022-10-19T02:54:50.574Z,7.16
2022-10-19T02:57:23.582Z,7.13
2022-10-19T02:59:51.638Z,7.12
2022-10-19T03:02:20.341Z,7.10
2022-10-19T03:07:16.426Z,7.12
2022-10-19T03:09:44.111Z,7.13
2022-10-19T03:12:12.852Z,7.18
2022-10-19T03:14:39.998Z,7.20
2022-10-19T03:17:07.221Z,7.23
2022-10-19T03:19:35.300Z,7.27
2022-10-19T03:22:03.146Z,7.30
2022-10-19T03:24:31.629Z,7.31
2022-10-19T03:26:58.852Z,7.32
2022-10-19T03:29:26.437Z,7.30
2022-10-19T03:31:53.577Z,7.31
2022-10-19T03:34:20.680Z,7.31
2022-10-19T03:36:47.829Z,7.28
2022-10-19T03:39:16.260Z,7.24
2022-10-19T03:41:44.228Z,7.18
2022-10-19T03:44:12.015Z,7.15
2022-10-19T03:46:40.006Z,7.11
2022-10-19T03:49:08.819Z,7.06
2022-10-19T03:51:36.417Z,7.02
2022-10-19T03:54:06.690Z,6.98
2022-10-19T03:56:35.021Z,6.97
2022-10-19T03:59:04.316Z,6.92
2022-10-19T04:01:34.700Z,6.91
2022-10-19T04:04:05.084Z,6.87
2022-10-19T04:06:35.087Z,6.84
2022-10-19T04:09:02.888Z,6.81
2022-10-19T04:11:31.097Z,6.77
2022-10-19T04:13:59.147Z,6.76
2022-10-19T04:16:28.567Z,6.77
2022-10-19T04:18:55.940Z,6.77
2022-10-19T04:21:26.851Z,6.75
2022-10-19T04:24:05.588Z,6.73
2022-10-19T04:26:33.876Z,6.69
2022-10-19T04:29:01.724Z,6.68
2022-10-19T04:31:29.334Z,6.64
2022-10-19T04:33:56.783Z,6.60
2022-10-19T04:36:23.978Z,6.58
2022-10-19T04:38:51.680Z,6.56
2022-10-19T04:41:20.847Z,6.54
2022-10-19T04:43:49.247Z,6.54
2022-10-19T04:46:18.672Z,6.53
2022-10-19T04:48:47.292Z,6.52
2022-10-19T04:51:15.779Z,6.54
2022-10-19T04:53:43.648Z,6.52
2022-10-19T04:56:17.571Z,6.53
2022-10-19T04:58:44.629Z,6.53
2022-10-19T05:01:15.070Z,6.52
2022-10-19T05:03:42.510Z,6.55
2022-10-19T05:06:10.295Z,6.57
2022-10-19T05:08:37.894Z,6.60
2022-10-19T05:11:07.533Z,6.63
2022-10-19T05:13:35.122Z,6.67
2022-10-19T05:16:04.702Z,6.70
2022-10-19T05:18:32.107Z,6.73
2022-10-19T05:21:10.647Z,6.74
2022-10-19T05:23:38.231Z,6.75
2022-10-19T05:26:07.421Z,6.75
2022-10-19T05:28:35.504Z,6.75
2022-10-19T05:31:14.728Z,6.77
2022-10-19T05:33:43.277Z,6.75
2022-10-19T05:36:14.083Z,6.77
2022-10-19T05:38:41.997Z,6.81
2022-10-19T05:41:09.225Z,6.85
2022-10-19T05:43:36.489Z,6.92
2022-10-19T05:46:08.297Z,6.94
2022-10-19T05:48:36.130Z,6.99
2022-10-19T05:51:04.808Z,7.00
2022-10-19T05:53:32.754Z,7.04
2022-10-19T05:55:59.960Z,7.09
2022-10-19T05:58:27.158Z,7.13
2022-10-19T06:00:55.336Z,7.18
2022-10-19T06:03:23.170Z,7.28
2022-10-19T06:05:50.943Z,7.39
2022-10-19T06:08:19.132Z,7.55
2022-10-19T06:10:46.671Z,7.70
2022-10-19T06:13:15.031Z,7.86
2022-10-19T06:15:42.410Z,8.02
2022-10-19T06:18:11.460Z,8.17
2022-10-19T06:20:40.339Z,8.32
2022-10-19T06:23:08.434Z,8.50
2022-10-19T06:25:36.878Z,8.64
2022-10-19T06:28:04.418Z,8.79
2022-10-19T06:30:32.128Z,8.91
2022-10-19T06:32:59.776Z,9.07
2022-10-19T06:35:27.258Z,9.21
2022-10-19T06:37:57.054Z,9.32
2022-10-19T06:40:24.981Z,9.43
2022-10-19T06:42:52.200Z,9.53
2022-10-19T06:45:19.292Z,9.58
2022-10-19T06:50:14.545Z,9.75
2022-10-19T06:52:41.627Z,9.85
2022-10-19T06:55:09.125Z,9.95
2022-10-19T06:57:36.593Z,10.07
2022-10-19T07:00:08.301Z,10.16
2022-10-19T07:05:06.123Z,10.28
2022-10-19T07:07:31.308Z,10.33
2022-10-19T07:09:58.722Z,10.41
2022-10-19T07:12:26.017Z,10.51
2022-10-19T07:14:55.030Z,10.62
2022-10-19T07:17:22.182Z,10.75
2022-10-19T07:19:49.331Z,10.91
2022-10-19T07:22:21.223Z,11.04
2022-10-19T07:24:45.412Z,11.14
2022-10-19T07:27:13.135Z,11.18
2022-10-19T07:29:40.150Z,11.25
2022-10-19T07:32:07.313Z,11.36
2022-10-19T07:34:34.474Z,11.40
2022-10-19T07:37:01.828Z,11.45
2022-10-19T07:39:29.136Z,11.52
2022-10-19T07:41:56.335Z,11.61
2022-10-19T07:44:23.889Z,11.60
2022-10-19T07:46:51.218Z,11.58
2022-10-19T07:49:19.468Z,11.62
2022-10-19T07:51:46.804Z,11.54
2022-10-19T07:54:14.149Z,11.48
2022-10-19T07:56:41.090Z,11.52
2022-10-19T07:59:09.697Z,11.46
2022-10-19T08:01:40.821Z,11.49
2022-10-19T08:06:37.754Z,11.49
2022-10-19T08:09:05.524Z,11.50
2022-10-19T08:11:34.365Z,11.55
2022-10-19T08:14:04.919Z,11.70
2022-10-19T08:16:39.694Z,11.85
2022-10-19T08:19:09.461Z,11.80
2022-10-19T08:21:39.088Z,11.81
2022-10-19T08:24:06.573Z,11.84
2022-10-19T08:26:37.165Z,11.86
2022-10-19T08:29:10.176Z,11.97
2022-10-19T08:31:37.747Z,12.06
2022-10-19T08:34:05.167Z,12.09
2022-10-19T08:36:34.239Z,12.13
2022-10-19T08:39:03.231Z,12.25
2022-10-19T08:41:59.782Z,12.34
2022-10-19T08:44:39.730Z,12.49
2022-10-19T08:47:30.593Z,12.64
2022-10-19T08:49:58.976Z,12.82
2022-10-19T08:52:34.212Z,12.98
2022-10-19T08:55:05.608Z,13.09
2022-10-19T08:57:42.182Z,13.13
2022-10-19T09:00:41.776Z,12.98
2022-10-19T09:03:37.648Z,12.96
2022-10-19T09:06:14.345Z,12.94
2022-10-19T09:08:41.677Z,12.96
2022-10-19T09:11:10.245Z,12.91
2022-10-19T09:14:04.123Z,12.93
2022-10-19T09:16:17.694Z,12.96
2022-10-19T09:18:46.661Z,12.96
2022-10-19T09:21:20.413Z,12.98
2022-10-19T09:24:03.504Z,13.00
2022-10-19T09:26:36.531Z,13.05
2022-10-19T09:29:23.861Z,13.09
2022-10-19T09:31:53.435Z,13.12
2022-10-19T09:34:26.992Z,13.09
2022-10-19T09:36:56.936Z,13.03
2022-10-19T09:39:28.680Z,12.97
2022-10-19T09:41:58.872Z,12.96
2022-10-19T09:44:26.844Z,12.95
2022-10-19T09:47:31.597Z,12.91
2022-10-19T09:50:08.607Z,12.96
2022-10-19T09:52:40.051Z,13.06
2022-10-19T09:55:16.794Z,13.12
2022-10-19T09:57:46.560Z,13.22
2022-10-19T10:00:19.843Z,13.30
2022-10-19T10:02:54.778Z,13.41
2022-10-19T10:05:31.060Z,13.58
2022-10-19T10:07:58.051Z,13.75
2022-10-19T10:10:30.594Z,13.85
2022-10-19T10:12:58.864Z,13.99
2022-10-19T10:15:28.994Z,14.15
2022-10-19T10:17:57.476Z,14.29
2022-10-19T10:20:31.855Z,14.44
2022-10-19T10:23:02.687Z,14.55
2022-10-19T10:25:32.894Z,14.61
2022-10-19T10:28:09.711Z,14.66
2022-10-19T10:30:37.441Z,14.70
2022-10-19T10:33:13.449Z,14.77
2022-10-19T10:35:35.277Z,14.82
2022-10-19T10:38:14.364Z,14.84
2022-10-19T10:41:03.603Z,14.82
2022-10-19T10:43:33.054Z,14.80
2022-10-19T10:46:03.891Z,14.78
2022-10-19T10:48:39.971Z,14.79
2022-10-19T10:51:19.979Z,14.78
2022-10-19T10:53:47.486Z,14.76
2022-10-19T10:56:26.559Z,14.67
2022-10-19T10:59:05.279Z,14.58
2022-10-19T11:01:40.983Z,14.48
2022-10-19T11:04:14.092Z,14.43
2022-10-19T11:06:51.173Z,14.42
2022-10-19T11:09:24.776Z,14.45
2022-10-19T11:11:55.331Z,14.49
2022-10-19T11:14:29.348Z,14.54
2022-10-19T11:16:59.417Z,14.59
2022-10-19T11:19:35.648Z,14.60
2022-10-19T11:22:35.695Z,14.61
2022-10-19T11:25:33.044Z,14.57
2022-10-19T11:28:28.526Z,14.54
2022-10-19T11:30:59.563Z,14.53
2022-10-19T11:33:47.468Z,14.55
2022-10-19T11:36:27.001Z,14.58
2022-10-19T11:39:04.121Z,14.60
2022-10-19T11:41:47.390Z,14.60
2022-10-19T11:44:33.555Z,14.61
2022-10-19T11:47:30.375Z,14.62
2022-10-19T11:50:10.400Z,14.63
2022-10-19T11:53:02.551Z,14.65
2022-10-19T11:55:51.723Z,14.61
2022-10-19T11:58:41.038Z,14.56
2022-10-19T12:01:30.453Z,14.49
2022-10-19T12:04:22.917Z,14.44
2022-10-19T12:07:02.386Z,14.43
2022-10-19T12:09:36.152Z,14.43
2022-10-19T12:12:16.139Z,14.46
2022-10-19T12:14:46.249Z,14.49
2022-10-19T12:17:22.479Z,14.54
2022-10-19T12:19:53.688Z,14.50
2022-10-19T12:22:26.606Z,14.50
2022-10-19T12:24:55.302Z,14.50
2022-10-19T12:27:38.891Z,14.51
2022-10-19T12:30:21.239Z,14.50
2022-10-19T12:32:58.292Z,14.44
2022-10-19T12:35:35.647Z,14.42
2022-10-19T12:38:12.725Z,14.41
2022-10-19T12:40:46.265Z,14.42
2022-10-19T12:43:23.267Z,14.36
2022-10-19T12:46:09.342Z,14.27
2022-10-19T12:48:38.343Z,14.23
2022-10-19T12:51:10.423Z,14.14
2022-10-19T12:53:49.124Z,14.10
2022-10-19T12:56:22.986Z,14.02
2022-10-19T12:58:56.380Z,13.98
2022-10-19T13:01:36.429Z,13.97
2022-10-19T13:04:12.345Z,13.94
2022-10-19T13:07:01.101Z,13.94
2022-10-19T13:09:42.679Z,13.93
2022-10-19T13:12:21.431Z,13.96
2022-10-19T13:15:01.130Z,13.96
2022-10-19T13:17:42.936Z,13.97
2022-10-19T13:20:19.616Z,13.99
2022-10-19T13:22:50.469Z,13.98
2022-10-19T13:25:23.041Z,13.98
2022-10-19T13:28:02.442Z,14.02
2022-10-19T13:30:39.091Z,14.05
2022-10-19T13:33:28.464Z,14.09
2022-10-19T13:36:03.502Z,14.10
2022-10-19T13:38:39.537Z,14.11
2022-10-19T13:41:27.366Z,14.15
2022-10-19T13:44:16.491Z,14.18
2022-10-19T13:47:04.228Z,14.18
2022-10-19T13:49:40.979Z,14.20
2022-10-19T13:52:31.914Z,14.20
2022-10-19T13:55:22.757Z,14.21
2022-10-19T13:57:59.148Z,14.23
2022-10-19T14:00:30.071Z,14.24
2022-10-19T14:03:19.191Z,14.23
2022-10-19T14:05:56.065Z,14.22
2022-10-19T14:08:49.919Z,14.22
2022-10-19T14:11:20.172Z,14.23
2022-10-19T14:13:51.163Z,14.23
2022-10-19T14:16:21.962Z,14.22
2022-10-19T14:18:54.543Z,14.20
2022-10-19T14:21:33.086Z,14.17
2022-10-19T14:24:00.470Z,14.17
2022-10-19T14:26:30.309Z,14.19
2022-10-19T14:28:59.311Z,14.18
2022-10-19T14:31:34.763Z,14.15
2022-10-19T14:34:04.098Z,14.10
2022-10-19T14:36:34.806Z,14.07
2022-10-19T14:39:01.842Z,14.08
2022-10-19T14:41:32.367Z,14.08
2022-10-19T14:44:02.258Z,14.09
2022-10-19T14:46:31.354Z,14.10
2022-10-19T14:49:02.064Z,14.10
2022-10-19T14:51:48.260Z,14.09
2022-10-19T14:54:31.677Z,14.09
2022-10-19T14:57:05.073Z,14.08
2022-10-19T14:59:37.445Z,14.05
2022-10-19T15:02:11.350Z,14.03
2022-10-19T15:04:38.959Z,14.01
2022-10-19T15:07:15.777Z,13.98
2022-10-19T15:09:48.234Z,13.95
2022-10-19T15:12:17.923Z,13.93
2022-10-19T15:14:45.923Z,13.92
2022-10-19T15:17:28.306Z,13.90
2022-10-19T15:19:59.306Z,13.88
2022-10-19T15:22:36.945Z,13.86
2022-10-19T15:25:11.016Z,13.82
2022-10-19T15:27:44.638Z,13.79
2022-10-19T15:30:27.522Z,13.78
2022-10-19T15:33:01.649Z,13.76
2022-10-19T15:35:30.923Z,13.74
2022-10-19T15:38:08.866Z,13.71
2022-10-19T15:40:41.140Z,13.67
2022-10-19T15:43:34.961Z,13.68
2022-10-19T15:46:08.550Z,13.67
2022-10-19T15:48:46.530Z,13.68
2022-10-19T15:51:26.576Z,13.68
2022-10-19T15:53:59.607Z,13.70
2022-10-19T15:56:28.720Z,13.75
2022-10-19T15:59:01.490Z,13.77
2022-10-19T16:01:31.517Z,13.79
2022-10-19T16:03:59.165Z,13.82
2022-10-19T16:06:29.113Z,13.82
2022-10-19T16:08:58.024Z,13.85
2022-10-19T16:11:26.503Z,13.84
2022-10-19T16:13:53.849Z,13.82
2022-10-19T16:16:30.612Z,13.80
2022-10-19T16:18:58.528Z,13.79
2022-10-19T16:21:28.882Z,13.74
2022-10-19T16:23:56.622Z,13.72
2022-10-19T16:26:25.634Z,13.67
2022-10-19T16:28:54.474Z,13.63
2022-10-19T16:31:22.450Z,13.58
2022-10-19T16:33:49.565Z,13.52
2022-10-19T16:36:18.670Z,13.47
2022-10-19T16:38:46.825Z,13.44
2022-10-19T16:41:14.569Z,13.41
2022-10-19T16:43:41.907Z,13.36
2022-10-19T16:46:09.221Z,13.32
2022-10-19T16:48:37.870Z,13.29
2022-10-19T16:51:25.893Z,13.25
2022-10-19T16:53:56.727Z,13.21
2022-10-19T16:56:25.118Z,13.16
2022-10-19T16:58:54.730Z,13.12
2022-10-19T17:01:22.375Z,13.09
2022-10-19T17:03:49.554Z,12.99
2022-10-19T17:06:18.410Z,12.90
2022-10-19T17:09:29.926Z,12.83
2022-10-19T17:11:25.351Z,12.80
2022-10-19T17:13:54.458Z,12.76
2022-10-19T17:16:23.497Z,12.74
2022-10-19T17:18:52.802Z,12.70
2022-10-19T17:21:22.384Z,12.68
2022-10-19T17:23:52.110Z,12.67
2022-10-19T17:26:25.295Z,12.64
2022-10-19T17:28:53.035Z,12.59
2022-10-19T17:31:20.169Z,12.55
2022-10-19T17:33:49.133Z,12.51
2022-10-19T17:36:19.714Z,12.49
2022-10-19T17:38:47.017Z,12.46
2022-10-19T17:41:17.068Z,12.42
2022-10-19T17:43:45.985Z,12.37
2022-10-19T17:46:15.647Z,12.34
2022-10-19T17:48:43.727Z,12.34
2022-10-19T17:51:15.235Z,12.34
2022-10-19T17:53:43.654Z,12.34
2022-10-19T17:56:13.238Z,12.37
2022-10-19T17:58:40.655Z,12.36
2022-10-19T18:01:08.896Z,12.37
2022-10-19T18:03:37.531Z,12.38
2022-10-19T18:06:11.017Z,12.39
2022-10-19T18:08:41.867Z,12.43
2022-10-19T18:11:15.525Z,12.45
2022-10-19T18:13:42.907Z,12.48
2022-10-19T18:16:16.097Z,12.49
2022-10-19T18:18:45.732Z,12.50
2022-10-19T18:21:15.066Z,12.51
2022-10-19T18:23:42.712Z,12.54
2022-10-19T18:26:13.221Z,12.57
2022-10-19T18:28:41.471Z,12.60
2022-10-19T18:31:19.036Z,12.63
2022-10-19T18:33:49.189Z,12.62
2022-10-19T18:36:16.454Z,12.58
2022-10-19T18:38:43.719Z,12.53
2022-10-19T18:43:39.855Z,12.42
2022-10-19T18:46:07.778Z,12.39
2022-10-19T18:48:37.223Z,12.36
2022-10-19T18:51:06.941Z,12.37
2022-10-19T18:53:34.490Z,12.34
2022-10-19T18:56:07.310Z,12.30
2022-10-19T18:58:35.783Z,12.29
2022-10-19T19:01:05.235Z,12.24
2022-10-19T19:03:32.494Z,12.19
2022-10-19T19:06:01.293Z,12.11
2022-10-19T19:08:28.635Z,12.06
2022-10-19T19:10:56.664Z,12.00
2022-10-19T19:13:23.724Z,11.97
2022-10-19T19:15:58.369Z,11.89
2022-10-19T19:18:26.003Z,11.85
2022-10-19T19:20:53.320Z,11.83
2022-10-19T19:23:20.432Z,11.80
2022-10-19T19:25:47.759Z,11.73
2022-10-19T19:28:14.941Z,11.69
2022-10-19T19:30:44.315Z,11.65
2022-10-19T19:33:12.424Z,11.60
2022-10-19T19:35:46.833Z,11.58
2022-10-19T19:38:14.838Z,11.54
2022-10-19T19:40:44.565Z,11.52
2022-10-19T19:43:13.464Z,11.50
2022-10-19T19:45:41.676Z,11.50
2022-10-19T19:48:09.829Z,11.50
2022-10-19T19:50:37.868Z,11.50
2022-10-19T19:53:05.258Z,11.50
2022-10-19T19:55:38.183Z,11.53
2022-10-19T19:58:04.178Z,11.58
2022-10-19T20:00:31.401Z,11.59
2022-10-19T20:02:58.941Z,11.60
2022-10-19T20:05:26.414Z,11.63
2022-10-19T20:07:53.481Z,11.66
2022-10-19T20:10:20.733Z,11.69
2022-10-19T20:12:47.847Z,11.71
2022-10-19T20:15:16.599Z,11.74
2022-10-19T20:17:44.174Z,11.76
2022-10-19T20:20:12.425Z,11.78
2022-10-19T20:22:39.934Z,11.82
2022-10-19T20:25:07.558Z,11.81
2022-10-19T20:27:35.334Z,11.78
2022-10-19T20:30:03.461Z,11.74
2022-10-19T20:32:30.700Z,11.69
2022-10-19T20:34:58.083Z,11.64
2022-10-19T20:37:26.016Z,11.57
2022-10-19T20:39:53.014Z,11.53
2022-10-19T20:42:21.232Z,11.48
2022-10-19T20:44:48.834Z,11.44
2022-10-19T20:47:16.130Z,11.40
2022-10-19T20:49:43.217Z,11.35
2022-10-19T20:52:10.308Z,11.26
2022-10-19T20:54:37.426Z,11.16
2022-10-19T20:57:04.645Z,11.12
2022-10-19T20:59:32.914Z,11.07
2022-10-19T21:02:00.110Z,11.00
2022-10-19T21:04:27.316Z,10.96
2022-10-19T21:06:54.341Z,10.91
2022-10-19T21:09:23.450Z,10.88
2022-10-19T21:11:51.490Z,10.85
2022-10-19T21:14:27.091Z,10.86
2022-10-19T21:16:56.035Z,10.85
2022-10-19T21:19:24.842Z,10.81
2022-10-19T21:21:58.019Z,10.73
2022-10-19T21:24:28.835Z,10.62
2022-10-19T21:26:56.181Z,10.55
2022-10-19T21:29:23.176Z,10.46
2022-10-19T21:31:52.577Z,10.40
2022-10-19T21:34:23.462Z,10.35
2022-10-19T21:36:51.374Z,10.35
2022-10-19T21:39:19.192Z,10.34
2022-10-19T21:41:46.664Z,10.35
2022-10-19T21:44:15.240Z,10.33
2022-10-19T21:46:43.028Z,10.33
2022-10-19T21:49:11.776Z,10.36
2022-10-19T21:51:47.555Z,10.40
2022-10-19T21:54:17.117Z,10.44
2022-10-19T21:56:44.944Z,10.47
2022-10-19T21:59:12.422Z,10.48
2022-10-19T22:01:41.546Z,10.48
2022-10-19T22:04:12.023Z,10.45
2022-10-19T22:06:39.631Z,10.32
2022-10-19T22:09:09.490Z,10.25
2022-10-19T22:11:36.792Z,10.18
2022-10-19T22:14:04.645Z,10.16
2022-10-19T22:16:32.941Z,10.15
2022-10-19T22:19:00.493Z,10.13
2022-10-19T22:21:31.915Z,10.12
2022-10-19T22:24:04.819Z,10.13
2022-10-19T22:26:34.683Z,10.09
2022-10-19T22:29:03.599Z,10.07
2022-10-19T22:31:32.044Z,10.05
2022-10-19T22:34:08.503Z,10.03
2022-10-19T22:36:35.568Z,10.00
2022-10-19T22:39:03.012Z,9.94
2022-10-19T22:41:30.049Z,9.86
2022-10-19T22:43:57.150Z,9.75
2022-10-19T22:46:24.385Z,9.71
2022-10-19T22:48:51.395Z,9.69
2022-10-19T22:51:18.475Z,9.63
2022-10-19T22:53:45.450Z,9.53
2022-10-19T22:56:12.950Z,9.42
2022-10-19T22:58:39.954Z,9.31
2022-10-19T23:01:10.291Z,9.21
2022-10-19T23:03:40.519Z,9.12
2022-10-19T23:06:09.440Z,9.05
2022-10-19T23:08:36.868Z,9.00
2022-10-19T23:11:04.034Z,8.96
2022-10-19T23:13:31.065Z,8.93
2022-10-19T23:15:58.138Z,8.91
2022-10-19T23:18:25.195Z,8.88
2022-10-19T23:20:54.965Z,8.80
2022-10-19T23:23:22.431Z,8.72
2022-10-19T23:26:05.391Z,8.63
2022-10-19T23:28:33.875Z,8.58
2022-10-19T23:31:23.444Z,8.52
2022-10-19T23:33:51.246Z,8.48
2022-10-19T23:36:20.844Z,8.43
2022-10-19T23:38:49.628Z,8.36
2022-10-19T23:41:18.218Z,8.30
2022-10-19T23:43:45.491Z,8.25
2022-10-19T23:46:13.370Z,8.16
2022-10-19T23:48:41.412Z,8.10
2022-10-19T23:51:13.916Z,8.04
2022-10-19T23:53:42.315Z,7.97
2022-10-19T23:56:12.945Z,7.96
2022-10-19T23:58:40.464Z,7.93
